Time;durP1;ratioP1;P1;durP2;ratioP2;P2;SDS_P1;SDS_P2;PMS_P1;PMS_P2;Temp;Humidity;BMP_temperature;BMP_pressure;BME280_temperature;BME280_humidity;BME280_pressure;Samples;Min_cycle;Max_cycle;Signal;HPM_P1;HPM_P2
2023/06/04 03:02:37;;;;;;;19.33;17.77;;;12.10;99.90;;;;;;4951700;28;20227;-73
2023/06/04 03:05:04;;;;;;;13.03;12.33;;;12.00;99.90;;;;;;4955658;28;20197;-74
2023/06/04 03:07:29;;;;;;;43.97;41.57;;;12.00;99.90;;;;;;4940334;28;20567;-73
2023/06/04 03:09:56;;;;;;;47.80;45.33;;;12.00;99.90;;;;;;4961303;28;20185;-75
2023/06/04 03:12:21;;;;;;;41.37;38.53;;;12.00;99.90;;;;;;4955117;28;20219;-73
2023/06/04 03:14:47;;;;;;;48.47;45.93;;;11.90;99.90;;;;;;4991504;23;20220;-76
2023/06/04 03:17:13;;;;;;;52.93;49.83;;;12.00;99.90;;;;;;4993443;28;20180;-76
2023/06/04 03:19:40;;;;;;;43.90;41.50;;;11.90;99.90;;;;;;4970173;28;20188;-76
2023/06/04 03:22:07;;;;;;;44.17;41.73;;;11.90;99.90;;;;;;4994620;28;20283;-76
2023/06/04 03:24:39;;;;;;;47.43;44.87;;;11.80;99.90;;;;;;4967927;28;20212;-76
2023/06/04 03:27:07;;;;;;;24.67;23.27;;;11.80;99.90;;;;;;4974178;28;20217;-76
2023/06/04 03:29:33;;;;;;;13.83;12.70;;;11.80;99.90;;;;;;4968118;28;20189;-76
2023/06/04 03:31:59;;;;;;;11.73;10.43;;;11.80;99.90;;;;;;4952777;28;20197;-77
2023/06/04 03:34:26;;;;;;;10.40;9.37;;;11.70;99.90;;;;;;4970957;28;20229;-76
2023/06/04 03:36:52;;;;;;;7.87;7.37;;;11.60;99.90;;;;;;4975291;28;20189;-75
2023/06/04 03:39:19;;;;;;;9.80;8.90;;;11.70;99.90;;;;;;4968276;28;20195;-76
2023/06/04 03:41:44;;;;;;;10.50;8.80;;;11.60;99.90;;;;;;4961923;28;20657;-75
2023/06/04 03:44:16;;;;;;;10.00;9.30;;;11.60;99.90;;;;;;4965296;28;20228;-76
2023/06/04 03:46:43;;;;;;;10.87;10.23;;;11.60;99.90;;;;;;4953975;28;20205;-76
2023/06/04 03:49:12;;;;;;;9.50;8.63;;;11.70;99.90;;;;;;4969391;28;20193;-76
2023/06/04 03:51:39;;;;;;;17.10;15.87;;;11.70;99.90;;;;;;4972974;28;20196;-75
2023/06/04 03:54:05;;;;;;;26.40;24.70;;;11.80;99.90;;;;;;4946948;28;20586;-75
2023/06/04 03:56:31;;;;;;;19.00;17.90;;;11.80;99.90;;;;;;4972857;28;20280;-76
2023/06/04 03:58:57;;;;;;;48.90;46.40;;;11.90;99.90;;;;;;4953581;28;20240;-75
2023/06/04 04:01:24;;;;;;;60.83;57.70;;;11.90;99.90;;;;;;4954534;28;20185;-74
2023/06/04 04:03:50;;;;;;;57.67;54.43;;;11.90;99.90;;;;;;4937538;29;20201;-75
2023/06/04 04:06:17;;;;;;;53.57;50.83;;;11.90;99.90;;;;;;4962750;28;20213;-75
2023/06/04 04:08:43;;;;;;;72.43;68.43;;;12.10;99.90;;;;;;4955350;28;20544;-75
2023/06/04 04:11:16;;;;;;;78.63;74.63;;;12.10;99.90;;;;;;4969936;28;20193;-75
2023/06/04 04:13:42;;;;;;;78.30;74.50;;;12.10;99.90;;;;;;4965906;28;20196;-74
2023/06/04 04:16:08;;;;;;;47.73;45.20;;;12.10;99.90;;;;;;4974072;28;20209;-75
2023/06/04 04:18:34;;;;;;;34.57;32.77;;;12.10;99.90;;;;;;4956735;28;20189;-75
2023/06/04 04:21:02;;;;;;;28.63;27.10;;;12.10;99.90;;;;;;4968990;28;20239;-75
2023/06/04 04:23:28;;;;;;;27.33;25.73;;;12.10;99.90;;;;;;4973570;28;20193;-76
2023/06/04 04:25:56;;;;;;;30.80;28.87;;;12.10;99.90;;;;;;4973389;28;20209;-75
2023/06/04 04:28:22;;;;;;;42.13;39.93;;;12.20;99.90;;;;;;4955701;28;20228;-76
2023/06/04 04:30:48;;;;;;;47.00;44.33;;;12.20;99.90;;;;;;4951178;28;20185;-76
2023/06/04 04:33:15;;;;;;;45.50;42.93;;;12.20;99.90;;;;;;4973361;28;20628;-75
2023/06/04 04:35:44;;;;;;;52.17;49.50;;;12.20;99.90;;;;;;4973148;28;20219;-76
2023/06/04 04:38:10;;;;;;;66.70;63.13;;;12.20;99.90;;;;;;4955654;28;20231;-75
2023/06/04 04:40:37;;;;;;;54.90;52.10;;;12.30;99.90;;;;;;4968523;28;20189;-75
2023/06/04 04:43:03;;;;;;;43.07;40.70;;;12.50;99.90;;;;;;4957974;28;20190;-75
2023/06/04 04:45:30;;;;;;;21.53;20.33;;;12.60;99.90;;;;;;4962888;28;20241;-76
2023/06/04 04:47:56;;;;;;;13.70;12.93;;;12.70;99.90;;;;;;4972510;28;20188;-76
2023/06/04 04:50:22;;;;;;;21.07;19.87;;;12.70;99.90;;;;;;4968147;28;20688;-75
2023/06/04 04:52:47;;;;;;;23.53;22.33;;;12.80;99.90;;;;;;4955568;28;20275;-75
2023/06/04 04:55:13;;;;;;;22.93;21.60;;;12.90;99.90;;;;;;4972575;28;20287;-75
2023/06/04 04:57:39;;;;;;;20.53;19.33;;;12.90;99.90;;;;;;4971816;28;20660;-75
2023/06/04 05:00:07;;;;;;;36.53;34.47;;;13.00;99.90;;;;;;4951171;28;20191;-76
2023/06/04 05:02:37;;;;;;;45.53;43.13;;;13.20;99.90;;;;;;4947504;28;20237;-75
2023/06/04 05:05:04;;;;;;;29.40;27.80;;;13.40;99.90;;;;;;4955217;28;20217;-76
2023/06/04 05:07:30;;;;;;;8.27;7.83;;;13.80;99.90;;;;;;4972224;28;20653;-68
2023/06/04 05:09:55;;;;;;;5.53;5.13;;;14.10;99.90;;;;;;4951532;28;20177;-69
2023/06/04 05:12:21;;;;;;;11.27;10.53;;;14.50;99.90;;;;;;4954841;28;20185;-70
2023/06/04 05:14:47;;;;;;;33.83;32.00;;;14.80;99.90;;;;;;4972253;28;20278;-70
2023/06/04 05:17:13;;;;;;;19.07;17.83;;;15.00;99.90;;;;;;4972242;28;20192;-70
2023/06/04 05:19:39;;;;;;;11.77;11.13;;;15.20;99.90;;;;;;4968233;28;20663;-70
2023/06/04 05:22:05;;;;;;;10.63;9.83;;;15.90;99.90;;;;;;4964227;28;20197;-70
2023/06/04 05:24:32;;;;;;;11.43;10.53;;;16.70;99.90;;;;;;4954632;28;20255;-69
2023/06/04 05:26:58;;;;;;;9.13;8.60;;;17.60;99.90;;;;;;4971421;28;20653;-69
2023/06/04 05:29:24;;;;;;;42.10;39.70;;;18.20;99.90;;;;;;4968622;28;20273;-69
2023/06/04 05:31:50;;;;;;;12.65;11.95;;;18.80;99.90;;;;;;4972112;28;20564;-69
2023/06/04 05:34:16;;;;;;;7.50;7.10;;;19.30;99.90;;;;;;4971631;28;20213;-70
2023/06/04 05:36:43;;;;;;;8.73;8.18;;;19.60;99.90;;;;;;4972135;28;20189;-69
2023/06/04 05:39:10;;;;;;;5.88;5.43;;;19.90;97.80;;;;;;4961195;28;20789;-69
2023/06/04 05:41:36;;;;;;;4.28;3.97;;;19.80;96.50;;;;;;4971120;28;20215;-70
2023/06/04 05:44:03;;;;;;;5.30;5.00;;;19.50;96.30;;;;;;4971670;28;20216;-69
2023/06/04 05:46:28;;;;;;;6.00;5.70;;;19.70;95.40;;;;;;4971811;28;20669;-69
2023/06/04 05:48:54;;;;;;;4.50;3.90;;;20.20;94.30;;;;;;4954086;28;20272;-70
2023/06/04 05:51:20;;;;;;;5.57;5.18;;;19.70;93.10;;;;;;4968905;28;20216;-70
2023/06/04 05:53:46;;;;;;;6.13;5.63;;;19.20;93.20;;;;;;4971705;28;20316;-69
2023/06/04 05:56:13;;;;;;;5.70;5.30;;;18.80;94.20;;;;;;4971974;28;20657;-69
2023/06/04 05:58:39;;;;;;;4.70;4.40;;;18.60;93.80;;;;;;4971894;28;20201;-68
2023/06/04 06:01:05;;;;;;;5.22;4.93;;;18.60;93.80;;;;;;4961214;28;20624;-69
2023/06/04 06:03:31;;;;;;;4.72;4.43;;;19.00;94.20;;;;;;4970344;28;20209;-70
2023/06/04 06:05:59;;;;;;;4.68;4.03;;;20.00;93.10;;;;;;4971544;28;20301;-70
2023/06/04 06:08:25;;;;;;;5.22;4.78;;;20.70;90.90;;;;;;4972402;28;20750;-70
2023/06/04 06:10:51;;;;;;;11.43;10.82;;;21.40;89.10;;;;;;4973100;28;20275;-69
2023/06/04 06:13:17;;;;;;;25.27;23.98;;;21.40;88.20;;;;;;4958333;28;20580;-69
2023/06/04 06:15:43;;;;;;;21.63;20.33;;;21.10;86.90;;;;;;4975441;28;20248;-69
2023/06/04 06:18:09;;;;;;;20.42;19.15;;;21.10;87.60;;;;;;4975432;28;20192;-70
2023/06/04 06:20:35;;;;;;;9.40;8.90;;;21.70;85.60;;;;;;4973241;28;20243;-70
2023/06/04 06:23:07;;;;;;;7.68;7.25;;;22.20;83.20;;;;;;4975801;28;20197;-68
2023/06/04 06:25:33;;;;;;;4.85;4.57;;;22.20;82.10;;;;;;4968446;28;20225;-67
2023/06/04 06:27:59;;;;;;;4.82;4.53;;;22.50;81.60;;;;;;4973711;28;20188;-68
2023/06/04 06:30:25;;;;;;;6.63;6.22;;;22.80;79.00;;;;;;4972798;28;20610;-68
2023/06/04 06:32:51;;;;;;;6.32;5.93;;;22.10;80.50;;;;;;4975530;28;20656;-69
2023/06/04 06:35:17;;;;;;;6.25;5.95;;;22.00;81.90;;;;;;4951970;28;20211;-68
2023/06/04 06:37:43;;;;;;;6.13;5.63;;;22.20;81.20;;;;;;4974889;28;20177;-68
2023/06/04 06:40:10;;;;;;;6.30;5.82;;;22.30;80.20;;;;;;4973757;28;20689;-69
2023/06/04 06:42:36;;;;;;;6.85;6.45;;;22.40;79.80;;;;;;4955875;28;20189;-68
2023/06/04 06:45:02;;;;;;;4.88;4.57;;;22.30;80.80;;;;;;4974997;28;20240;-68
2023/06/04 06:47:27;;;;;;;5.03;4.72;;;23.00;79.20;;;;;;4974909;28;20259;-68
2023/06/04 06:49:54;;;;;;;6.30;5.90;;;23.50;77.10;;;;;;4973154;28;20177;-69
2023/06/04 06:52:20;;;;;;;4.90;4.65;;;23.70;75.60;;;;;;4974889;28;20189;-68
2023/06/04 06:54:46;;;;;;;5.07;4.60;;;23.90;75.30;;;;;;4966697;28;20949;-68
2023/06/04 06:57:12;;;;;;;6.25;5.70;;;24.00;74.10;;;;;;4974316;28;20193;-68
2023/06/04 06:59:38;;;;;;;4.60;4.28;;;23.80;74.50;;;;;;4973381;28;20256;-68
2023/06/04 07:02:05;;;;;;;5.90;5.55;;;23.30;74.60;;;;;;4957547;28;20189;-68
2023/06/04 07:04:30;;;;;;;5.93;5.43;;;23.50;76.50;;;;;;4974356;28;20217;-67
2023/06/04 07:06:56;;;;;;;6.95;6.53;;;23.70;74.60;;;;;;4956909;28;20328;-68
2023/06/04 07:09:22;;;;;;;5.60;5.18;;;23.80;75.70;;;;;;4956354;28;20220;-68
2023/06/04 07:11:48;;;;;;;4.47;4.10;;;24.50;73.70;;;;;;4974354;28;20185;-67
2023/06/04 07:14:14;;;;;;;5.03;4.78;;;24.80;71.50;;;;;;4974453;28;20224;-68
2023/06/04 07:16:40;;;;;;;5.70;5.20;;;25.00;70.00;;;;;;4974579;28;20255;-69
2023/06/04 07:19:06;;;;;;;8.40;7.90;;;25.10;70.30;;;;;;4956293;28;20200;-68
2023/06/04 07:21:32;;;;;;;9.27;8.48;;;25.30;68.20;;;;;;4970538;28;20260;-68
2023/06/04 07:23:57;;;;;;;8.88;8.13;;;24.90;69.20;;;;;;4968569;28;20213;-68
2023/06/04 07:26:25;;;;;;;5.03;4.38;;;24.90;69.50;;;;;;4973895;28;20216;-69
2023/06/04 07:28:50;;;;;;;7.70;7.18;;;24.80;72.20;;;;;;4973995;28;20398;-69
2023/06/04 07:31:17;;;;;;;12.20;11.50;;;25.10;69.20;;;;;;4957500;28;20189;-69
2023/06/04 07:33:43;;;;;;;9.35;8.55;;;25.00;68.30;;;;;;4974209;28;20271;-69
2023/06/04 07:36:16;;;;;;;11.43;10.50;;;24.80;70.40;;;;;;4956989;28;20199;-69
2023/06/04 07:38:42;;;;;;;10.05;9.35;;;24.80;68.90;;;;;;4956869;28;20633;-70
2023/06/04 07:41:08;;;;;;;11.57;10.90;;;25.10;69.90;;;;;;4965844;28;20239;-69
2023/06/04 07:43:35;;;;;;;14.43;13.50;;;25.70;69.60;;;;;;4973939;28;20200;-69
2023/06/04 07:46:01;;;;;;;13.52;12.40;;;26.40;67.10;;;;;;4974022;28;20653;-72
2023/06/04 07:48:30;;;;;;;15.23;14.30;;;26.40;64.60;;;;;;4969918;28;20196;-69
2023/06/04 07:50:58;;;;;;;15.38;14.35;;;26.00;65.00;;;;;;4965917;28;20185;-71
2023/06/04 07:53:24;;;;;;;12.38;11.48;;;25.80;66.20;;;;;;4956835;28;20185;-70
2023/06/04 07:55:49;;;;;;;14.15;13.40;;;25.50;65.00;;;;;;4973980;28;20626;-69
2023/06/04 07:58:15;;;;;;;15.90;14.90;;;25.20;66.30;;;;;;4956437;28;20239;-70
2023/06/04 08:00:41;;;;;;;11.68;10.98;;;25.10;67.70;;;;;;4966258;28;20213;-70
2023/06/04 08:03:07;;;;;;;14.93;14.13;;;25.50;67.50;;;;;;4956636;28;20197;-70
2023/06/04 08:05:34;;;;;;;11.55;10.95;;;26.10;66.90;;;;;;4956278;28;20224;-69
2023/06/04 08:08:00;;;;;;;14.20;13.50;;;26.60;63.90;;;;;;4973290;28;20189;-70
2023/06/04 08:10:25;;;;;;;12.98;11.95;;;26.50;64.40;;;;;;4965106;28;20197;-70
2023/06/04 08:12:51;;;;;;;11.45;10.75;;;26.70;63.50;;;;;;4972389;28;20550;-69
2023/06/04 08:15:17;;;;;;;9.40;8.90;;;26.60;63.30;;;;;;4972220;28;20220;-69
2023/06/04 08:17:43;;;;;;;11.80;10.93;;;26.20;63.50;;;;;;4954954;28;20193;-71
2023/06/04 08:20:09;;;;;;;13.88;12.65;;;26.10;64.20;;;;;;4958717;28;20756;-71
2023/06/04 08:22:34;;;;;;;10.48;9.88;;;26.40;64.10;;;;;;4955541;28;20650;-70
2023/06/04 08:25:00;;;;;;;5.72;5.32;;;26.90;63.10;;;;;;4972928;28;20397;-70
2023/06/04 08:27:26;;;;;;;12.75;11.75;;;26.70;61.90;;;;;;4973234;28;20634;-69
2023/06/04 08:29:52;;;;;;;15.20;13.95;;;26.10;64.40;;;;;;4969807;28;20268;-70
2023/06/04 08:32:18;;;;;;;8.32;7.63;;;26.70;66.00;;;;;;4970273;28;20192;-69
2023/06/04 08:34:44;;;;;;;6.13;5.65;;;27.20;62.10;;;;;;4973794;28;20209;-70
2023/06/04 08:37:10;;;;;;;5.13;4.72;;;27.50;62.30;;;;;;4973284;28;20197;-71
2023/06/04 08:39:36;;;;;;;5.60;5.22;;;27.30;60.60;;;;;;4971472;28;20200;-70
2023/06/04 08:42:07;;;;;;;7.28;6.85;;;26.40;60.70;;;;;;4963872;28;20186;-71
2023/06/04 08:44:33;;;;;;;6.60;6.13;;;26.50;60.70;;;;;;4954798;28;20232;-69
2023/06/04 08:47:03;;;;;;;4.90;4.50;;;26.60;60.20;;;;;;4972629;28;20251;-72
2023/06/04 08:49:36;;;;;;;5.75;5.07;;;26.90;59.70;;;;;;4955284;28;20193;-69
2023/06/04 08:52:02;;;;;;;4.97;4.57;;;27.10;61.10;;;;;;4962916;28;20296;-69
2023/06/04 08:54:29;;;;;;;5.00;4.53;;;27.50;58.30;;;;;;4973128;28;20236;-70
2023/06/04 08:56:57;;;;;;;9.80;5.47;;;26.90;59.10;;;;;;4955756;28;20197;-73
2023/06/04 08:59:23;;;;;;;5.93;5.00;;;26.80;59.50;;;;;;4972749;28;20201;-73
2023/06/04 09:01:55;;;;;;;7.43;6.88;;;26.50;58.50;;;;;;4949365;28;20189;-77
2023/06/04 09:04:21;;;;;;;5.75;5.43;;;26.50;59.20;;;;;;4976633;28;20693;-77
2023/06/04 09:06:47;;;;;;;5.97;5.00;;;26.80;57.40;;;;;;4957193;28;20216;-77
2023/06/04 09:09:17;;;;;;;4.93;4.55;;;26.80;57.20;;;;;;4977069;28;20193;-77
2023/06/04 09:11:53;;;;;;;10.80;10.05;;;26.40;57.20;;;;;;4969598;28;20193;-76
2023/06/04 09:14:19;;;;;;;10.95;10.05;;;26.00;58.60;;;;;;4996187;23;20236;-74
2023/06/04 09:16:52;;;;;;;9.68;8.98;;;26.20;58.80;;;;;;4992262;28;20208;-74
2023/06/04 09:19:19;;;;;;;8.73;7.82;;;26.60;57.50;;;;;;4992052;28;20204;-75
2023/06/04 09:21:59;;;;;;;6.07;5.68;;;26.80;57.10;;;;;;4986233;28;20180;-75
2023/06/04 09:24:38;;;;;;;4.53;4.22;;;27.20;56.80;;;;;;4970109;28;20212;-75
2023/06/04 09:27:11;;;;;;;5.03;4.20;;;27.70;56.00;;;;;;4954906;28;20626;-74
2023/06/04 09:29:37;;;;;;;5.78;4.50;;;28.10;55.10;;;;;;4971871;28;20192;-74
2023/06/04 09:32:03;;;;;;;5.32;4.80;;;27.80;55.70;;;;;;4967299;28;20192;-74
2023/06/04 09:34:30;;;;;;;4.70;4.35;;;27.40;55.00;;;;;;4954949;28;20216;-74
2023/06/04 09:36:56;;;;;;;4.80;4.50;;;27.70;55.80;;;;;;4972061;28;20642;-74
2023/06/04 09:39:23;;;;;;;7.28;4.50;;;28.20;54.30;;;;;;4972117;28;20201;-74
2023/06/04 09:42:02;;;;;;;5.97;5.47;;;28.00;54.20;;;;;;4949647;28;20668;-74
2023/06/04 09:44:31;;;;;;;6.43;5.93;;;28.40;54.30;;;;;;4971872;28;20216;-68
2023/06/04 09:46:57;;;;;;;6.18;5.78;;;28.40;53.00;;;;;;4971715;28;20209;-69
2023/06/04 09:49:23;;;;;;;7.35;6.85;;;28.20;53.80;;;;;;4973176;28;20661;-71
2023/06/04 09:51:50;;;;;;;13.00;12.00;;;28.90;52.60;;;;;;4966808;28;20190;-71
2023/06/04 09:54:16;;;;;;;7.30;6.80;;;28.30;51.50;;;;;;4971903;28;20324;-70
2023/06/04 09:56:42;;;;;;;8.52;7.07;;;27.70;53.40;;;;;;4971996;28;20631;-72
2023/06/04 09:59:09;;;;;;;18.33;16.92;;;28.20;54.10;;;;;;4971733;28;20193;-72
2023/06/04 10:01:41;;;;;;;18.20;16.80;;;28.70;51.90;;;;;;4949854;28;20195;-70
2023/06/04 10:04:08;;;;;;;23.90;22.50;;;28.60;51.90;;;;;;4972158;28;20567;-70
2023/06/04 10:06:35;;;;;;;37.33;35.20;;;29.30;50.60;;;;;;4947660;28;20630;-71
2023/06/04 10:09:08;;;;;;;43.58;41.17;;;29.30;50.80;;;;;;4969654;28;20569;-70
2023/06/04 10:11:49;;;;;;;45.42;42.40;;;29.90;49.90;;;;;;4970653;28;20220;-70
2023/06/04 10:14:45;;;;;;;42.65;40.35;;;29.90;49.80;;;;;;4954645;28;20274;-70
2023/06/04 10:17:13;;;;;;;47.03;44.30;;;29.60;49.50;;;;;;4970374;28;20225;-70
2023/06/04 10:19:43;;;;;;;34.95;33.10;;;29.50;50.50;;;;;;4969884;28;20184;-72
2023/06/04 10:22:11;;;;;;;35.08;33.08;;;30.00;49.50;;;;;;4971852;28;20224;-74
2023/06/04 10:24:37;;;;;;;25.52;23.75;;;30.60;48.60;;;;;;4971722;28;20646;-76
2023/06/04 10:27:10;;;;;;;12.88;12.13;;;31.10;48.10;;;;;;4971367;28;20208;-73
2023/06/04 10:29:36;;;;;;;11.18;10.40;;;30.90;47.80;;;;;;4970042;28;20192;-72
2023/06/04 10:32:02;;;;;;;11.38;10.57;;;30.60;48.60;;;;;;4972073;28;20181;-73
2023/06/04 10:34:28;;;;;;;12.15;11.30;;;30.60;47.70;;;;;;4957403;28;20212;-86
2023/06/04 10:36:55;;;;;;;11.98;11.27;;;30.10;48.00;;;;;;4958933;28;20189;-80
2023/06/04 10:39:35;;;;;;;12.48;11.77;;;30.00;48.00;;;;;;4969337;28;20196;-82
2023/06/04 10:42:02;;;;;;;10.70;10.00;;;30.60;47.90;;;;;;4962741;28;20186;-77
2023/06/04 10:44:32;;;;;;;12.18;11.57;;;31.10;47.20;;;;;;4955340;28;20680;-80
2023/06/04 10:46:58;;;;;;;11.18;10.45;;;31.70;46.40;;;;;;4965757;28;20208;-76
2023/06/04 10:49:31;;;;;;;16.02;15.15;;;31.80;47.70;;;;;;4954378;28;20263;-76
2023/06/04 10:52:03;;;;;;;16.02;15.13;;;32.10;45.90;;;;;;4975891;28;20296;-75
2023/06/04 10:54:29;;;;;;;15.48;14.55;;;32.00;43.30;;;;;;4966633;28;20221;-77
2023/06/04 10:56:55;;;;;;;19.98;18.88;;;31.70;44.80;;;;;;4953909;29;20256;-77
2023/06/04 10:59:21;;;;;;;19.45;18.35;;;30.80;44.80;;;;;;4965953;28;20654;-75
2023/06/04 11:01:48;;;;;;;22.02;20.73;;;30.40;45.00;;;;;;4967904;28;20188;-84
2023/06/04 11:04:25;;;;;;;17.83;16.85;;;30.60;44.60;;;;;;4963910;28;20212;-80
2023/06/04 11:07:10;;;;;;;19.23;18.02;;;30.40;44.20;;;;;;4967398;28;20224;-81
2023/06/04 11:09:56;;;;;;;21.60;20.35;;;30.70;44.80;;;;;;4955907;28;20193;-79
2023/06/04 11:12:22;;;;;;;23.33;22.08;;;31.40;44.50;;;;;;4960734;28;20225;-77
2023/06/04 11:14:55;;;;;;;21.48;19.75;;;31.20;43.50;;;;;;4951858;28;20252;-78
2023/06/04 11:17:21;;;;;;;18.67;17.23;;;30.90;44.40;;;;;;4954327;28;20213;-78
2023/06/04 11:19:47;;;;;;;18.85;17.75;;;31.30;44.10;;;;;;4950146;28;20672;-79
2023/06/04 11:22:13;;;;;;;14.65;13.80;;;32.00;44.50;;;;;;4951100;29;20887;-79
2023/06/04 11:24:39;;;;;;;12.82;11.85;;;32.70;41.90;;;;;;4958144;28;20204;-78
2023/06/04 11:27:05;;;;;;;13.55;12.63;;;33.10;41.60;;;;;;4975646;28;20767;-80
2023/06/04 11:29:32;;;;;;;12.38;11.68;;;33.00;42.50;;;;;;4968103;28;20190;-78
2023/06/04 11:31:58;;;;;;;13.02;12.13;;;32.60;43.00;;;;;;4959201;28;20193;-79
2023/06/04 11:34:29;;;;;;;9.70;8.75;;;32.90;41.90;;;;;;4950979;28;20698;-78
2023/06/04 11:36:55;;;;;;;9.27;6.55;;;33.00;41.90;;;;;;4958232;28;20657;-78
2023/06/04 11:39:22;;;;;;;5.70;4.80;;;33.20;40.70;;;;;;4968961;28;20188;-77
2023/06/04 11:41:50;;;;;;;4.38;4.07;;;33.60;40.00;;;;;;4964423;28;20189;-79
2023/06/04 11:44:19;;;;;;;5.40;5.00;;;33.60;40.00;;;;;;4958461;28;20207;-78
2023/06/04 11:46:48;;;;;;;4.57;4.18;;;33.40;41.40;;;;;;4958415;28;20304;-78
2023/06/04 11:49:18;;;;;;;5.57;4.78;;;33.90;41.70;;;;;;4969194;28;20213;-79
2023/06/04 11:51:51;;;;;;;6.25;5.85;;;34.30;39.80;;;;;;4957727;28;20283;-78
2023/06/04 11:54:18;;;;;;;7.45;6.95;;;33.90;39.30;;;;;;4941681;28;20205;-78
2023/06/04 11:56:44;;;;;;;7.95;7.40;;;33.90;38.80;;;;;;4960443;28;20216;-78
2023/06/04 11:59:13;;;;;;;8.15;7.47;;;34.60;38.70;;;;;;4966082;28;20333;-78
2023/06/04 12:01:43;;;;;;;11.23;10.63;;;34.50;38.90;;;;;;4975162;28;20185;-78
2023/06/04 12:04:13;;;;;;;8.07;7.57;;;34.50;38.70;;;;;;4975185;28;20244;-78
2023/06/04 12:06:49;;;;;;;4.68;4.28;;;33.60;38.80;;;;;;4968884;28;20345;-78
2023/06/04 12:09:21;;;;;;;10.27;9.32;;;31.20;40.70;;;;;;4951680;29;20189;-78
2023/06/04 12:11:47;;;;;;;7.60;7.07;;;31.40;40.70;;;;;;4960956;28;20193;-79
2023/06/04 12:14:20;;;;;;;8.80;7.85;;;31.70;40.30;;;;;;4957969;28;20676;-78
2023/06/04 12:16:57;;;;;;;13.82;12.80;;;31.10;40.80;;;;;;4959152;28;20193;-77
2023/06/04 12:19:23;;;;;;;13.73;12.95;;;30.50;41.40;;;;;;4952705;28;20193;-78
2023/06/04 12:22:06;;;;;;;11.23;10.27;;;31.70;40.50;;;;;;4958038;28;20275;-78
2023/06/04 12:25:02;;;;;;;11.68;10.88;;;32.70;39.60;;;;;;4975812;28;20221;-78
2023/06/04 12:27:28;;;;;;;5.45;5.05;;;32.50;39.70;;;;;;4974642;28;20213;-78
2023/06/04 12:29:57;;;;;;;4.70;4.13;;;33.30;39.70;;;;;;4970097;28;20181;-78
2023/06/04 12:32:23;;;;;;;4.97;4.68;;;34.10;37.90;;;;;;4968788;28;20189;-79
2023/06/04 12:34:48;;;;;;;9.45;8.85;;;32.90;38.40;;;;;;4970507;28;20207;-79
2023/06/04 12:37:14;;;;;;;9.20;8.30;;;31.80;40.20;;;;;;4960073;29;20245;-79
2023/06/04 12:39:40;;;;;;;7.43;6.75;;;32.10;40.40;;;;;;4972885;28;20244;-78
2023/06/04 12:42:08;;;;;;;5.53;5.05;;;32.70;39.80;;;;;;4957493;28;20207;-78
2023/06/04 12:44:36;;;;;;;5.75;5.35;;;33.50;39.40;;;;;;4973846;28;20209;-78
2023/06/04 12:47:03;;;;;;;7.85;7.20;;;34.30;37.80;;;;;;4956440;28;20641;-78
2023/06/04 12:49:28;;;;;;;6.78;6.28;;;34.50;37.80;;;;;;4968687;28;20182;-77
2023/06/04 12:51:54;;;;;;;5.90;5.50;;;33.80;37.50;;;;;;4975764;28;20200;-78
2023/06/04 12:54:20;;;;;;;7.07;6.57;;;33.40;38.90;;;;;;4959729;28;20583;-77
2023/06/04 12:56:46;;;;;;;7.60;7.00;;;34.20;39.30;;;;;;4958018;28;20204;-80
2023/06/04 12:59:12;;;;;;;11.10;10.43;;;35.20;38.10;;;;;;4956345;29;20185;-78
2023/06/04 13:01:38;;;;;;;11.05;10.38;;;34.50;37.10;;;;;;4959616;28;20203;-78
2023/06/04 13:04:05;;;;;;;6.97;6.57;;;33.90;37.80;;;;;;4979070;28;20253;-78
2023/06/04 13:06:31;;;;;;;8.38;7.78;;;33.20;38.60;;;;;;4976698;28;20220;-79
2023/06/04 13:08:56;;;;;;;7.70;7.10;;;32.50;38.20;;;;;;4972647;28;20193;-78
2023/06/04 13:11:22;;;;;;;6.32;5.05;;;32.20;39.60;;;;;;4967346;28;20281;-78
2023/06/04 13:13:48;;;;;;;4.97;4.55;;;31.90;39.60;;;;;;4957477;28;20586;-77
2023/06/04 13:16:14;;;;;;;5.57;4.28;;;31.40;39.00;;;;;;4955411;28;20623;-78
2023/06/04 13:18:40;;;;;;;4.95;4.55;;;31.70;39.20;;;;;;4956663;28;20184;-77
2023/06/04 13:21:06;;;;;;;4.97;4.60;;;32.70;39.60;;;;;;4970334;28;20210;-78
2023/06/04 13:23:31;;;;;;;5.65;5.22;;;33.10;37.60;;;;;;4973809;28;20185;-77
2023/06/04 13:25:57;;;;;;;5.50;5.10;;;33.30;36.80;;;;;;4973317;28;20232;-77
2023/06/04 13:28:23;;;;;;;6.25;5.05;;;32.90;37.00;;;;;;4973458;28;20197;-77
2023/06/04 13:30:49;;;;;;;6.43;6.05;;;33.20;38.10;;;;;;4969635;28;20220;-78
2023/06/04 13:33:15;;;;;;;8.07;7.57;;;33.50;37.00;;;;;;4956924;28;20240;-78
2023/06/04 13:35:42;;;;;;;8.70;8.13;;;34.30;36.30;;;;;;4957002;28;20621;-77
2023/06/04 13:38:08;;;;;;;11.70;10.95;;;35.00;36.30;;;;;;4973883;28;20188;-78
2023/06/04 13:40:36;;;;;;;12.85;12.05;;;34.20;35.80;;;;;;4973779;28;20193;-77
2023/06/04 13:43:04;;;;;;;9.38;8.88;;;33.40;35.90;;;;;;4970819;28;20192;-77
2023/06/04 13:45:30;;;;;;;8.15;7.45;;;33.30;36.50;;;;;;4973140;28;20312;-78
2023/06/04 13:47:59;;;;;;;8.15;7.70;;;33.50;36.60;;;;;;4956279;28;20275;-78
2023/06/04 13:50:25;;;;;;;10.55;9.85;;;34.20;36.20;;;;;;4956865;28;20188;-78
2023/06/04 13:52:52;;;;;;;8.88;8.07;;;34.70;35.60;;;;;;4958523;28;20256;-78
2023/06/04 13:55:18;;;;;;;11.98;11.18;;;34.70;35.00;;;;;;4958472;28;20775;-77
2023/06/04 13:57:43;;;;;;;11.93;11.07;;;34.60;36.50;;;;;;4969364;28;20185;-77
2023/06/04 14:00:10;;;;;;;10.00;9.30;;;34.70;36.00;;;;;;4966564;28;20189;-77
2023/06/04 14:02:36;;;;;;;10.32;9.63;;;35.30;34.60;;;;;;4966564;28;20562;-77
2023/06/04 14:05:02;;;;;;;10.90;10.35;;;36.00;34.00;;;;;;4965012;28;20217;-77
2023/06/04 14:07:27;;;;;;;12.70;11.90;;;36.30;34.10;;;;;;4960057;28;20232;-76
2023/06/04 14:09:54;;;;;;;9.05;8.38;;;35.30;33.80;;;;;;4975877;28;20231;-77
2023/06/04 14:12:23;;;;;;;10.02;9.43;;;34.60;33.90;;;;;;4974876;28;20196;-77
2023/06/04 14:14:49;;;;;;;7.53;6.90;;;33.90;34.40;;;;;;4957032;28;20708;-77
2023/06/04 14:17:15;;;;;;;5.45;4.95;;;32.60;35.60;;;;;;4975570;28;20193;-77
2023/06/04 14:19:41;;;;;;;5.97;5.57;;;32.40;36.30;;;;;;4973773;28;20661;-76
2023/06/04 14:22:06;;;;;;;5.55;5.15;;;33.40;35.80;;;;;;4965467;28;20226;-78
2023/06/04 14:24:33;;;;;;;6.97;6.55;;;34.20;34.80;;;;;;4960054;28;20216;-77
2023/06/04 14:26:58;;;;;;;9.30;8.70;;;35.20;34.90;;;;;;4953379;29;20456;-77
2023/06/04 14:29:24;;;;;;;16.85;15.95;;;35.90;34.00;;;;;;4969436;28;20184;-76
2023/06/04 14:31:50;;;;;;;23.60;22.23;;;36.90;32.10;;;;;;4988767;28;20207;-76
2023/06/04 14:34:16;;;;;;;22.05;20.70;;;36.70;31.80;;;;;;4992695;28;20712;-77
2023/06/04 14:36:42;;;;;;;27.05;25.60;;;36.20;31.80;;;;;;4969478;28;20197;-78
2023/06/04 14:39:07;;;;;;;22.40;21.25;;;36.40;32.00;;;;;;4977392;28;20203;-78
2023/06/04 14:41:33;;;;;;;26.42;25.13;;;36.40;32.90;;;;;;4977241;28;20200;-77
2023/06/04 14:43:59;;;;;;;22.17;20.65;;;36.10;33.80;;;;;;4955339;28;20197;-77
2023/06/04 14:46:26;;;;;;;24.42;23.13;;;36.20;33.20;;;;;;4960213;28;20272;-78
2023/06/04 14:48:51;;;;;;;23.08;21.70;;;36.50;33.30;;;;;;4977570;28;20262;-78
2023/06/04 14:51:17;;;;;;;25.38;24.08;;;36.70;31.90;;;;;;4959353;28;20712;-78
2023/06/04 14:53:43;;;;;;;24.17;22.90;;;37.70;31.90;;;;;;4977862;28;20192;-78
2023/06/04 14:56:09;;;;;;;21.83;20.55;;;37.70;31.20;;;;;;4958060;28;20210;-77
2023/06/04 14:58:35;;;;;;;22.88;21.58;;;37.60;31.40;;;;;;4956666;28;20200;-78
2023/06/04 15:01:03;;;;;;;21.33;20.23;;;37.30;31.00;;;;;;4960719;28;20692;-78
2023/06/04 15:03:29;;;;;;;16.00;15.05;;;37.40;31.40;;;;;;4959732;28;20193;-78
2023/06/04 15:05:56;;;;;;;17.92;16.92;;;37.20;29.90;;;;;;4958709;28;20633;-77
2023/06/04 15:08:22;;;;;;;31.52;29.75;;;36.10;31.90;;;;;;4975481;28;20216;-77
2023/06/04 15:10:48;;;;;;;27.33;25.80;;;34.80;33.40;;;;;;4972397;28;20236;-77
2023/06/04 15:13:14;;;;;;;24.08;22.88;;;34.50;32.80;;;;;;4958026;28;20189;-78
2023/06/04 15:15:39;;;;;;;22.10;20.88;;;34.40;32.30;;;;;;4981617;23;20232;-77
2023/06/04 15:18:08;;;;;;;25.48;24.17;;;34.60;32.50;;;;;;4976147;28;20234;-77
2023/06/04 15:20:34;;;;;;;24.52;23.23;;;35.40;31.70;;;;;;4976828;28;20223;-76
2023/06/04 15:22:59;;;;;;;19.50;18.25;;;35.50;32.00;;;;;;4977111;28;20239;-77
2023/06/04 15:25:25;;;;;;;21.27;19.98;;;35.40;33.40;;;;;;4979634;28;20206;-77
2023/06/04 15:27:51;;;;;;;28.77;27.17;;;35.10;33.50;;;;;;4974626;28;20192;-77
2023/06/04 15:30:17;;;;;;;27.15;25.73;;;35.50;33.30;;;;;;4974468;28;20348;-76
2023/06/04 15:32:43;;;;;;;28.92;27.45;;;35.70;32.90;;;;;;4974548;28;20607;-76
2023/06/04 15:35:10;;;;;;;28.77;27.27;;;35.60;33.20;;;;;;4974435;28;20678;-77
2023/06/04 15:37:36;;;;;;;24.27;22.92;;;35.20;33.00;;;;;;4954107;28;20201;-77